sensor_id;sensor_type;location;lat;lon;timestamp;P1;durP1;ratioP1;P2;durP2;ratioP2
64738;SDS011;51175;51.186;0.276;2023-04-05T00:00:07;5.10;;;3.05;;
64738;SDS011;51175;51.186;0.276;2023-04-05T00:00:39;4.38;;;2.83;;
64738;SDS011;51175;51.186;0.276;2023-04-05T00:01:09;4.38;;;3.15;;
64738;SDS011;51175;51.186;0.276;2023-04-05T00:01:41;3.60;;;2.90;;
64738;SDS011;51175;51.186;0.276;2023-04-05T00:02:12;4.30;;;2.72;;
64738;SDS011;51175;51.186;0.276;2023-04-05T00:02:42;4.28;;;2.42;;
64738;SDS011;51175;51.186;0.276;2023-04-05T00:03:13;7.13;;;3.15;;
64738;SDS011;51175;51.186;0.276;2023-04-05T00:03:47;5.15;;;3.03;;
64738;SDS011;51175;51.186;0.276;2023-04-05T00:04:18;4.07;;;2.80;;
64738;SDS011;51175;51.186;0.276;2023-04-05T00:04:50;4.72;;;3.10;;
64738;SDS011;51175;51.186;0.276;2023-04-05T00:05:21;4.93;;;3.38;;
64738;SDS011;51175;51.186;0.276;2023-04-05T00:05:58;6.88;;;3.38;;
64738;SDS011;51175;51.186;0.276;2023-04-05T00:06:29;6.07;;;3.47;;
64738;SDS011;51175;51.186;0.276;2023-04-05T00:06:59;3.80;;;3.03;;
64738;SDS011;51175;51.186;0.276;2023-04-05T00:07:31;4.60;;;2.90;;
64738;SDS011;51175;51.186;0.276;2023-04-05T00:08:03;4.40;;;2.90;;
64738;SDS011;51175;51.186;0.276;2023-04-05T00:08:37;3.90;;;2.78;;
64738;SDS011;51175;51.186;0.276;2023-04-05T00:09:07;4.47;;;3.05;;
64738;SDS011;51175;51.186;0.276;2023-04-05T00:09:37;4.18;;;2.80;;
64738;SDS011;51175;51.186;0.276;2023-04-05T00:10:08;4.82;;;3.10;;
64738;SDS011;51175;51.186;0.276;2023-04-05T00:10:38;5.03;;;3.40;;
64738;SDS011;51175;51.186;0.276;2023-04-05T00:11:09;7.15;;;3.28;;
64738;SDS011;51175;51.186;0.276;2023-04-05T00:11:39;5.75;;;2.90;;
64738;SDS011;51175;51.186;0.276;2023-04-05T00:12:10;3.42;;;2.58;;
64738;SDS011;51175;51.186;0.276;2023-04-05T00:12:40;5.50;;;2.28;;
64738;SDS011;51175;51.186;0.276;2023-04-05T00:13:11;4.93;;;3.30;;
64738;SDS011;51175;51.186;0.276;2023-04-05T00:13:44;3.85;;;2.83;;
64738;SDS011;51175;51.186;0.276;2023-04-05T00:14:14;5.63;;;2.92;;
64738;SDS011;51175;51.186;0.276;2023-04-05T00:14:45;4.85;;;2.67;;
64738;SDS011;51175;51.186;0.276;2023-04-05T00:15:15;4.25;;;2.90;;
64738;SDS011;51175;51.186;0.276;2023-04-05T00:15:46;4.82;;;2.80;;
64738;SDS011;51175;51.186;0.276;2023-04-05T00:16:18;5.82;;;3.20;;
64738;SDS011;51175;51.186;0.276;2023-04-05T00:16:49;4.45;;;2.70;;
64738;SDS011;51175;51.186;0.276;2023-04-05T00:17:19;4.13;;;3.13;;
64738;SDS011;51175;51.186;0.276;2023-04-05T00:17:50;5.10;;;3.17;;
64738;SDS011;51175;51.186;0.276;2023-04-05T00:18:23;5.38;;;3.47;;
64738;SDS011;51175;51.186;0.276;2023-04-05T00:18:57;5.45;;;3.17;;
64738;SDS011;51175;51.186;0.276;2023-04-05T00:19:29;5.88;;;3.63;;
64738;SDS011;51175;51.186;0.276;2023-04-05T00:20:02;4.72;;;2.90;;
64738;SDS011;51175;51.186;0.276;2023-04-05T00:20:37;5.20;;;3.10;;
64738;SDS011;51175;51.186;0.276;2023-04-05T00:21:07;4.72;;;3.28;;
64738;SDS011;51175;51.186;0.276;2023-04-05T00:21:38;5.38;;;3.45;;
64738;SDS011;51175;51.186;0.276;2023-04-05T00:22:08;5.18;;;2.85;;
64738;SDS011;51175;51.186;0.276;2023-04-05T00:22:40;5.03;;;2.90;;
64738;SDS011;51175;51.186;0.276;2023-04-05T00:23:12;4.47;;;2.75;;
64738;SDS011;51175;51.186;0.276;2023-04-05T00:23:43;6.63;;;3.30;;
64738;SDS011;51175;51.186;0.276;2023-04-05T00:24:16;5.07;;;2.95;;
64738;SDS011;51175;51.186;0.276;2023-04-05T00:24:46;5.85;;;3.33;;
64738;SDS011;51175;51.186;0.276;2023-04-05T00:25:17;5.57;;;3.35;;
64738;SDS011;51175;51.186;0.276;2023-04-05T00:25:47;4.20;;;2.83;;
64738;SDS011;51175;51.186;0.276;2023-04-05T00:26:18;6.28;;;3.17;;
64738;SDS011;51175;51.186;0.276;2023-04-05T00:26:49;5.30;;;3.17;;
64738;SDS011;51175;51.186;0.276;2023-04-05T00:27:19;5.72;;;3.85;;
64738;SDS011;51175;51.186;0.276;2023-04-05T00:27:50;4.43;;;3.25;;
64738;SDS011;51175;51.186;0.276;2023-04-05T00:28:21;4.55;;;3.00;;
64738;SDS011;51175;51.186;0.276;2023-04-05T00:28:51;5.75;;;2.90;;
64738;SDS011;51175;51.186;0.276;2023-04-05T00:29:22;5.55;;;3.80;;
64738;SDS011;51175;51.186;0.276;2023-04-05T00:29:52;4.80;;;3.53;;
64738;SDS011;51175;51.186;0.276;2023-04-05T00:30:23;3.85;;;2.78;;
64738;SDS011;51175;51.186;0.276;2023-04-05T00:30:54;5.05;;;3.55;;
64738;SDS011;51175;51.186;0.276;2023-04-05T00:31:24;4.90;;;3.08;;
64738;SDS011;51175;51.186;0.276;2023-04-05T00:31:55;4.63;;;3.17;;
64738;SDS011;51175;51.186;0.276;2023-04-05T00:32:25;5.22;;;3.15;;
64738;SDS011;51175;51.186;0.276;2023-04-05T00:32:56;4.35;;;2.90;;
64738;SDS011;51175;51.186;0.276;2023-04-05T00:33:26;5.28;;;3.50;;
64738;SDS011;51175;51.186;0.276;2023-04-05T00:33:57;4.28;;;2.92;;
64738;SDS011;51175;51.186;0.276;2023-04-05T00:34:27;5.20;;;2.85;;
64738;SDS011;51175;51.186;0.276;2023-04-05T00:34:57;3.85;;;2.55;;
64738;SDS011;51175;51.186;0.276;2023-04-05T00:35:28;5.05;;;3.40;;
64738;SDS011;51175;51.186;0.276;2023-04-05T00:36:08;5.60;;;3.15;;
64738;SDS011;51175;51.186;0.276;2023-04-05T00:36:41;5.40;;;3.50;;
64738;SDS011;51175;51.186;0.276;2023-04-05T00:37:12;4.50;;;3.45;;
64738;SDS011;51175;51.186;0.276;2023-04-05T00:37:42;4.82;;;3.13;;
64738;SDS011;51175;51.186;0.276;2023-04-05T00:38:12;6.03;;;3.80;;
64738;SDS011;51175;51.186;0.276;2023-04-05T00:38:43;4.65;;;3.28;;
64738;SDS011;51175;51.186;0.276;2023-04-05T00:39:15;6.25;;;3.42;;
64738;SDS011;51175;51.186;0.276;2023-04-05T00:39:45;5.53;;;2.70;;
64738;SDS011;51175;51.186;0.276;2023-04-05T00:40:16;5.55;;;3.40;;
64738;SDS011;51175;51.186;0.276;2023-04-05T00:40:46;4.95;;;3.47;;
64738;SDS011;51175;51.186;0.276;2023-04-05T00:41:17;6.57;;;3.97;;
64738;SDS011;51175;51.186;0.276;2023-04-05T00:41:47;4.75;;;3.72;;
64738;SDS011;51175;51.186;0.276;2023-04-05T00:42:17;5.47;;;3.42;;
64738;SDS011;51175;51.186;0.276;2023-04-05T00:42:48;5.05;;;3.08;;
64738;SDS011;51175;51.186;0.276;2023-04-05T00:43:18;4.43;;;3.45;;
64738;SDS011;51175;51.186;0.276;2023-04-05T00:43:49;4.28;;;3.15;;
64738;SDS011;51175;51.186;0.276;2023-04-05T00:44:20;4.80;;;3.55;;
64738;SDS011;51175;51.186;0.276;2023-04-05T00:44:50;5.93;;;3.67;;
64738;SDS011;51175;51.186;0.276;2023-04-05T00:45:21;5.05;;;3.47;;
64738;SDS011;51175;51.186;0.276;2023-04-05T00:45:51;5.20;;;3.42;;
64738;SDS011;51175;51.186;0.276;2023-04-05T00:46:22;4.65;;;3.00;;
64738;SDS011;51175;51.186;0.276;2023-04-05T00:46:54;7.20;;;4.00;;
64738;SDS011;51175;51.186;0.276;2023-04-05T00:47:25;4.22;;;2.92;;
64738;SDS011;51175;51.186;0.276;2023-04-05T00:47:55;7.97;;;3.63;;
64738;SDS011;51175;51.186;0.276;2023-04-05T00:48:25;7.03;;;3.83;;
64738;SDS011;51175;51.186;0.276;2023-04-05T00:48:56;4.03;;;2.95;;
64738;SDS011;51175;51.186;0.276;2023-04-05T00:49:27;5.53;;;2.97;;
64738;SDS011;51175;51.186;0.276;2023-04-05T00:49:59;4.95;;;3.28;;
64738;SDS011;51175;51.186;0.276;2023-04-05T00:50:30;6.43;;;3.50;;
64738;SDS011;51175;51.186;0.276;2023-04-05T00:51:01;5.63;;;3.47;;
64738;SDS011;51175;51.186;0.276;2023-04-05T00:51:32;6.28;;;3.75;;
64738;SDS011;51175;51.186;0.276;2023-04-05T00:52:02;4.55;;;3.33;;
64738;SDS011;51175;51.186;0.276;2023-04-05T00:52:33;4.32;;;3.10;;
64738;SDS011;51175;51.186;0.276;2023-04-05T00:53:04;5.82;;;3.30;;
64738;SDS011;51175;51.186;0.276;2023-04-05T00:53:35;6.80;;;3.42;;
64738;SDS011;51175;51.186;0.276;2023-04-05T00:54:06;4.43;;;3.28;;
64738;SDS011;51175;51.186;0.276;2023-04-05T00:54:37;5.53;;;3.00;;
64738;SDS011;51175;51.186;0.276;2023-04-05T00:55:08;5.47;;;4.05;;
64738;SDS011;51175;51.186;0.276;2023-04-05T00:55:39;4.45;;;3.55;;
64738;SDS011;51175;51.186;0.276;2023-04-05T00:56:11;7.05;;;4.50;;
64738;SDS011;51175;51.186;0.276;2023-04-05T00:56:42;4.95;;;3.10;;
64738;SDS011;51175;51.186;0.276;2023-04-05T00:57:13;4.78;;;3.33;;
64738;SDS011;51175;51.186;0.276;2023-04-05T00:57:44;4.90;;;3.13;;
64738;SDS011;51175;51.186;0.276;2023-04-05T00:58:15;5.90;;;3.70;;
64738;SDS011;51175;51.186;0.276;2023-04-05T00:58:51;4.25;;;3.13;;
64738;SDS011;51175;51.186;0.276;2023-04-05T00:59:22;4.03;;;2.90;;
64738;SDS011;51175;51.186;0.276;2023-04-05T00:59:52;5.15;;;2.97;;
64738;SDS011;51175;51.186;0.276;2023-04-05T01:00:23;5.85;;;4.10;;
64738;SDS011;51175;51.186;0.276;2023-04-05T01:02:01;6.25;;;2.97;;
64738;SDS011;51175;51.186;0.276;2023-04-05T01:02:51;5.85;;;2.95;;
64738;SDS011;51175;51.186;0.276;2023-04-05T01:03:27;5.30;;;3.08;;
64738;SDS011;51175;51.186;0.276;2023-04-05T01:04:00;6.43;;;3.63;;
64738;SDS011;51175;51.186;0.276;2023-04-05T01:04:36;5.75;;;3.60;;
64738;SDS011;51175;51.186;0.276;2023-04-05T01:05:11;4.80;;;3.30;;
64738;SDS011;51175;51.186;0.276;2023-04-05T01:05:50;5.07;;;3.72;;
64738;SDS011;51175;51.186;0.276;2023-04-05T01:06:42;5.78;;;3.25;;
64738;SDS011;51175;51.186;0.276;2023-04-05T01:07:26;4.28;;;3.20;;
64738;SDS011;51175;51.186;0.276;2023-04-05T01:08:24;4.88;;;3.10;;
64738;SDS011;51175;51.186;0.276;2023-04-05T01:09:21;5.43;;;3.15;;
64738;SDS011;51175;51.186;0.276;2023-04-05T01:10:02;8.20;;;3.63;;
64738;SDS011;51175;51.186;0.276;2023-04-05T01:10:36;4.63;;;3.30;;
64738;SDS011;51175;51.186;0.276;2023-04-05T01:11:11;4.75;;;3.42;;
64738;SDS011;51175;51.186;0.276;2023-04-05T01:11:43;5.10;;;2.97;;
64738;SDS011;51175;51.186;0.276;2023-04-05T01:12:17;7.60;;;3.38;;
64738;SDS011;51175;51.186;0.276;2023-04-05T01:12:48;5.72;;;3.35;;
64738;SDS011;51175;51.186;0.276;2023-04-05T01:13:19;5.65;;;3.50;;
64738;SDS011;51175;51.186;0.276;2023-04-05T01:13:56;5.10;;;3.22;;
64738;SDS011;51175;51.186;0.276;2023-04-05T01:14:28;4.60;;;3.28;;
64738;SDS011;51175;51.186;0.276;2023-04-05T01:14:59;4.22;;;3.53;;
64738;SDS011;51175;51.186;0.276;2023-04-05T01:15:30;4.28;;;2.88;;
64738;SDS011;51175;51.186;0.276;2023-04-05T01:16:01;5.53;;;3.08;;
64738;SDS011;51175;51.186;0.276;2023-04-05T01:16:31;4.70;;;2.85;;
64738;SDS011;51175;51.186;0.276;2023-04-05T01:17:02;5.10;;;3.78;;
64738;SDS011;51175;51.186;0.276;2023-04-05T01:17:32;4.75;;;3.03;;
64738;SDS011;51175;51.186;0.276;2023-04-05T01:18:08;5.05;;;3.42;;
64738;SDS011;51175;51.186;0.276;2023-04-05T01:18:40;4.95;;;3.15;;
64738;SDS011;51175;51.186;0.276;2023-04-05T01:19:15;6.18;;;3.33;;
64738;SDS011;51175;51.186;0.276;2023-04-05T01:19:47;5.13;;;3.20;;
64738;SDS011;51175;51.186;0.276;2023-04-05T01:20:22;6.15;;;3.47;;
64738;SDS011;51175;51.186;0.276;2023-04-05T01:21:01;4.80;;;3.30;;
64738;SDS011;51175;51.186;0.276;2023-04-05T01:24:50;4.30;;;3.42;;
64738;SDS011;51175;51.186;0.276;2023-04-05T01:25:48;5.15;;;3.20;;
64738;SDS011;51175;51.186;0.276;2023-04-05T01:26:39;6.97;;;3.50;;
64738;SDS011;51175;51.186;0.276;2023-04-05T01:30:08;4.72;;;3.17;;
64738;SDS011;51175;51.186;0.276;2023-04-05T01:31:13;5.80;;;2.95;;
64738;SDS011;51175;51.186;0.276;2023-04-05T01:31:54;8.15;;;3.95;;
64738;SDS011;51175;51.186;0.276;2023-04-05T01:33:13;7.53;;;3.35;;
64738;SDS011;51175;51.186;0.276;2023-04-05T01:33:57;5.10;;;3.80;;
64738;SDS011;51175;51.186;0.276;2023-04-05T01:35:26;4.63;;;3.42;;
64738;SDS011;51175;51.186;0.276;2023-04-05T01:36:15;4.50;;;2.90;;
64738;SDS011;51175;51.186;0.276;2023-04-05T01:36:56;5.55;;;3.53;;
64738;SDS011;51175;51.186;0.276;2023-04-05T01:37:35;5.88;;;3.70;;
64738;SDS011;51175;51.186;0.276;2023-04-05T01:38:09;5.75;;;3.22;;
64738;SDS011;51175;51.186;0.276;2023-04-05T01:38:45;5.40;;;3.55;;
64738;SDS011;51175;51.186;0.276;2023-04-05T01:39:19;5.38;;;3.25;;
64738;SDS011;51175;51.186;0.276;2023-04-05T01:39:50;4.18;;;2.92;;
64738;SDS011;51175;51.186;0.276;2023-04-05T01:40:21;5.68;;;3.17;;
64738;SDS011;51175;51.186;0.276;2023-04-05T01:40:52;5.28;;;3.35;;
64738;SDS011;51175;51.186;0.276;2023-04-05T01:41:23;6.55;;;3.83;;
64738;SDS011;51175;51.186;0.276;2023-04-05T01:41:58;5.30;;;3.75;;
64738;SDS011;51175;51.186;0.276;2023-04-05T01:42:30;4.47;;;3.65;;
64738;SDS011;51175;51.186;0.276;2023-04-05T01:43:01;5.28;;;3.67;;
64738;SDS011;51175;51.186;0.276;2023-04-05T01:43:32;6.30;;;3.35;;
64738;SDS011;51175;51.186;0.276;2023-04-05T01:44:02;5.28;;;3.38;;
64738;SDS011;51175;51.186;0.276;2023-04-05T01:44:33;5.57;;;3.10;;
64738;SDS011;51175;51.186;0.276;2023-04-05T01:45:03;4.40;;;3.17;;
64738;SDS011;51175;51.186;0.276;2023-04-05T01:45:34;5.35;;;3.58;;
64738;SDS011;51175;51.186;0.276;2023-04-05T01:46:04;6.70;;;3.80;;
64738;SDS011;51175;51.186;0.276;2023-04-05T01:46:35;5.03;;;3.60;;
64738;SDS011;51175;51.186;0.276;2023-04-05T01:47:05;5.57;;;3.67;;
64738;SDS011;51175;51.186;0.276;2023-04-05T01:47:36;4.32;;;2.95;;
64738;SDS011;51175;51.186;0.276;2023-04-05T01:48:06;4.93;;;3.65;;
64738;SDS011;51175;51.186;0.276;2023-04-05T01:48:37;4.82;;;3.53;;
64738;SDS011;51175;51.186;0.276;2023-04-05T01:49:07;5.45;;;3.33;;
64738;SDS011;51175;51.186;0.276;2023-04-05T01:49:37;5.68;;;3.17;;
64738;SDS011;51175;51.186;0.276;2023-04-05T01:50:08;5.65;;;3.47;;
64738;SDS011;51175;51.186;0.276;2023-04-05T01:50:38;5.22;;;3.83;;
64738;SDS011;51175;51.186;0.276;2023-04-05T01:51:09;4.90;;;3.88;;
64738;SDS011;51175;51.186;0.276;2023-04-05T01:51:40;7.65;;;2.95;;
64738;SDS011;51175;51.186;0.276;2023-04-05T01:52:11;5.65;;;3.78;;
64738;SDS011;51175;51.186;0.276;2023-04-05T01:52:41;5.22;;;3.20;;
64738;SDS011;51175;51.186;0.276;2023-04-05T01:53:11;7.28;;;3.40;;
64738;SDS011;51175;51.186;0.276;2023-04-05T01:53:42;5.00;;;3.28;;
64738;SDS011;51175;51.186;0.276;2023-04-05T01:54:12;5.25;;;3.60;;
64738;SDS011;51175;51.186;0.276;2023-04-05T01:54:43;5.28;;;2.90;;
64738;SDS011;51175;51.186;0.276;2023-04-05T01:55:13;6.80;;;3.47;;
64738;SDS011;51175;51.186;0.276;2023-04-05T01:55:44;5.90;;;3.80;;
64738;SDS011;51175;51.186;0.276;2023-04-05T01:56:15;7.15;;;3.53;;
64738;SDS011;51175;51.186;0.276;2023-04-05T01:56:45;4.20;;;3.30;;
64738;SDS011;51175;51.186;0.276;2023-04-05T01:57:15;5.47;;;3.65;;
64738;SDS011;51175;51.186;0.276;2023-04-05T01:57:46;7.28;;;3.78;;
64738;SDS011;51175;51.186;0.276;2023-04-05T01:58:16;5.28;;;3.28;;
64738;SDS011;51175;51.186;0.276;2023-04-05T01:58:47;5.07;;;3.33;;
64738;SDS011;51175;51.186;0.276;2023-04-05T01:59:17;4.18;;;3.22;;
64738;SDS011;51175;51.186;0.276;2023-04-05T01:59:47;5.35;;;3.20;;
64738;SDS011;51175;51.186;0.276;2023-04-05T02:00:18;4.35;;;3.22;;
64738;SDS011;51175;51.186;0.276;2023-04-05T02:00:48;3.95;;;3.28;;
64738;SDS011;51175;51.186;0.276;2023-04-05T02:01:18;4.47;;;3.40;;
64738;SDS011;51175;51.186;0.276;2023-04-05T02:01:50;5.18;;;3.30;;
64738;SDS011;51175;51.186;0.276;2023-04-05T02:02:20;5.93;;;3.60;;
64738;SDS011;51175;51.186;0.276;2023-04-05T02:02:51;6.15;;;3.50;;
64738;SDS011;51175;51.186;0.276;2023-04-05T02:03:22;4.25;;;3.25;;
64738;SDS011;51175;51.186;0.276;2023-04-05T02:03:55;3.53;;;2.75;;
64738;SDS011;51175;51.186;0.276;2023-04-05T02:04:25;4.53;;;3.63;;
64738;SDS011;51175;51.186;0.276;2023-04-05T02:04:56;5.68;;;3.67;;
64738;SDS011;51175;51.186;0.276;2023-04-05T02:05:26;3.85;;;3.15;;
64738;SDS011;51175;51.186;0.276;2023-04-05T02:05:57;5.53;;;3.55;;
64738;SDS011;51175;51.186;0.276;2023-04-05T02:06:27;5.68;;;3.83;;
64738;SDS011;51175;51.186;0.276;2023-04-05T02:06:57;6.13;;;4.20;;
64738;SDS011;51175;51.186;0.276;2023-04-05T02:07:28;4.82;;;3.47;;
64738;SDS011;51175;51.186;0.276;2023-04-05T02:07:58;5.22;;;3.10;;
64738;SDS011;51175;51.186;0.276;2023-04-05T02:08:28;3.90;;;2.83;;
64738;SDS011;51175;51.186;0.276;2023-04-05T02:08:59;6.25;;;4.22;;
64738;SDS011;51175;51.186;0.276;2023-04-05T02:09:30;6.88;;;3.88;;
64738;SDS011;51175;51.186;0.276;2023-04-05T02:10:00;6.20;;;4.25;;
64738;SDS011;51175;51.186;0.276;2023-04-05T02:10:31;5.85;;;3.72;;
64738;SDS011;51175;51.186;0.276;2023-04-05T02:11:01;4.95;;;3.20;;
64738;SDS011;51175;51.186;0.276;2023-04-05T02:11:31;4.53;;;2.95;;
64738;SDS011;51175;51.186;0.276;2023-04-05T02:12:02;7.07;;;3.30;;
64738;SDS011;51175;51.186;0.276;2023-04-05T02:12:32;6.32;;;4.20;;
64738;SDS011;51175;51.186;0.276;2023-04-05T02:13:03;5.25;;;3.67;;
64738;SDS011;51175;51.186;0.276;2023-04-05T02:13:33;4.63;;;3.35;;
64738;SDS011;51175;51.186;0.276;2023-04-05T02:14:03;6.13;;;3.75;;
64738;SDS011;51175;51.186;0.276;2023-04-05T02:14:34;5.40;;;3.70;;
64738;SDS011;51175;51.186;0.276;2023-04-05T02:15:04;5.55;;;3.22;;
64738;SDS011;51175;51.186;0.276;2023-04-05T02:15:36;4.63;;;3.20;;
64738;SDS011;51175;51.186;0.276;2023-04-05T02:16:06;5.30;;;3.70;;
64738;SDS011;51175;51.186;0.276;2023-04-05T02:16:37;4.88;;;3.53;;
64738;SDS011;51175;51.186;0.276;2023-04-05T02:17:07;7.53;;;3.95;;
64738;SDS011;51175;51.186;0.276;2023-04-05T02:17:38;6.45;;;3.83;;
64738;SDS011;51175;51.186;0.276;2023-04-05T02:18:08;5.82;;;3.20;;
64738;SDS011;51175;51.186;0.276;2023-04-05T02:18:39;5.30;;;3.58;;
64738;SDS011;51175;51.186;0.276;2023-04-05T02:19:10;5.25;;;3.45;;
64738;SDS011;51175;51.186;0.276;2023-04-05T02:19:42;6.05;;;3.88;;
64738;SDS011;51175;51.186;0.276;2023-04-05T02:20:15;5.65;;;3.88;;
64738;SDS011;51175;51.186;0.276;2023-04-05T02:20:45;5.75;;;3.53;;
64738;SDS011;51175;51.186;0.276;2023-04-05T02:21:16;5.85;;;3.65;;
64738;SDS011;51175;51.186;0.276;2023-04-05T02:21:47;6.10;;;4.35;;
64738;SDS011;51175;51.186;0.276;2023-04-05T02:22:18;6.57;;;4.38;;
64738;SDS011;51175;51.186;0.276;2023-04-05T02:22:49;5.82;;;3.28;;
64738;SDS011;51175;51.186;0.276;2023-04-05T02:23:20;5.75;;;3.70;;
64738;SDS011;51175;51.186;0.276;2023-04-05T02:23:51;7.75;;;4.95;;
64738;SDS011;51175;51.186;0.276;2023-04-05T02:24:25;5.85;;;4.10;;
64738;SDS011;51175;51.186;0.276;2023-04-05T02:24:55;5.63;;;3.70;;
64738;SDS011;51175;51.186;0.276;2023-04-05T02:25:25;6.30;;;4.03;;
64738;SDS011;51175;51.186;0.276;2023-04-05T02:25:56;4.65;;;3.78;;
64738;SDS011;51175;51.186;0.276;2023-04-05T02:26:30;6.32;;;3.75;;
64738;SDS011;51175;51.186;0.276;2023-04-05T02:27:00;5.82;;;4.07;;
64738;SDS011;51175;51.186;0.276;2023-04-05T02:27:31;7.78;;;4.78;;
64738;SDS011;51175;51.186;0.276;2023-04-05T02:28:01;5.53;;;4.07;;
64738;SDS011;51175;51.186;0.276;2023-04-05T02:28:31;6.57;;;3.60;;
64738;SDS011;51175;51.186;0.276;2023-04-05T02:29:02;7.22;;;3.90;;
64738;SDS011;51175;51.186;0.276;2023-04-05T02:29:32;5.55;;;3.60;;
64738;SDS011;51175;51.186;0.276;2023-04-05T02:30:03;6.03;;;3.95;;
64738;SDS011;51175;51.186;0.276;2023-04-05T02:30:34;5.80;;;3.90;;
64738;SDS011;51175;51.186;0.276;2023-04-05T02:31:08;5.35;;;4.10;;
64738;SDS011;51175;51.186;0.276;2023-04-05T02:31:40;5.45;;;3.90;;
64738;SDS011;51175;51.186;0.276;2023-04-05T02:32:10;7.03;;;4.68;;
64738;SDS011;51175;51.186;0.276;2023-04-05T02:32:40;5.20;;;3.92;;
64738;SDS011;51175;51.186;0.276;2023-04-05T02:33:14;5.05;;;3.75;;
64738;SDS011;51175;51.186;0.276;2023-04-05T02:33:45;5.95;;;3.75;;
64738;SDS011;51175;51.186;0.276;2023-04-05T02:34:16;5.85;;;4.00;;
64738;SDS011;51175;51.186;0.276;2023-04-05T02:34:46;5.13;;;3.72;;
64738;SDS011;51175;51.186;0.276;2023-04-05T02:35:17;5.22;;;3.63;;
64738;SDS011;51175;51.186;0.276;2023-04-05T02:35:48;6.00;;;4.25;;
64738;SDS011;51175;51.186;0.276;2023-04-05T02:36:20;6.05;;;3.78;;
64738;SDS011;51175;51.186;0.276;2023-04-05T02:36:51;6.78;;;4.25;;
64738;SDS011;51175;51.186;0.276;2023-04-05T02:37:22;5.53;;;3.63;;
64738;SDS011;51175;51.186;0.276;2023-04-05T02:37:55;7.10;;;3.80;;
64738;SDS011;51175;51.186;0.276;2023-04-05T02:38:25;5.90;;;4.05;;
64738;SDS011;51175;51.186;0.276;2023-04-05T02:38:56;6.20;;;4.68;;
64738;SDS011;51175;51.186;0.276;2023-04-05T02:39:26;6.68;;;4.63;;
64738;SDS011;51175;51.186;0.276;2023-04-05T02:39:58;6.65;;;4.50;;
64738;SDS011;51175;51.186;0.276;2023-04-05T02:40:29;6.47;;;4.28;;
64738;SDS011;51175;51.186;0.276;2023-04-05T02:40:59;6.50;;;4.45;;
64738;SDS011;51175;51.186;0.276;2023-04-05T02:41:30;6.10;;;4.30;;
64738;SDS011;51175;51.186;0.276;2023-04-05T02:42:00;6.47;;;4.35;;
64738;SDS011;51175;51.186;0.276;2023-04-05T02:42:31;6.60;;;4.30;;
64738;SDS011;51175;51.186;0.276;2023-04-05T02:43:01;5.63;;;4.22;;
64738;SDS011;51175;51.186;0.276;2023-04-05T02:43:31;10.43;;;4.90;;
64738;SDS011;51175;51.186;0.276;2023-04-05T02:44:04;5.53;;;4.15;;
64738;SDS011;51175;51.186;0.276;2023-04-05T02:44:34;6.90;;;4.50;;
64738;SDS011;51175;51.186;0.276;2023-04-05T02:45:05;5.97;;;4.63;;
64738;SDS011;51175;51.186;0.276;2023-04-05T02:45:37;5.75;;;4.55;;
64738;SDS011;51175;51.186;0.276;2023-04-05T02:46:07;6.72;;;4.60;;
64738;SDS011;51175;51.186;0.276;2023-04-05T02:46:38;6.65;;;4.65;;
64738;SDS011;51175;51.186;0.276;2023-04-05T02:47:08;8.25;;;4.45;;
64738;SDS011;51175;51.186;0.276;2023-04-05T02:47:38;6.07;;;4.43;;
64738;SDS011;51175;51.186;0.276;2023-04-05T02:48:09;5.72;;;4.22;;
64738;SDS011;51175;51.186;0.276;2023-04-05T02:48:39;8.30;;;4.63;;
64738;SDS011;51175;51.186;0.276;2023-04-05T02:49:10;7.50;;;4.45;;
64738;SDS011;51175;51.186;0.276;2023-04-05T02:49:40;6.50;;;4.80;;
64738;SDS011;51175;51.186;0.276;2023-04-05T02:50:10;6.97;;;4.57;;
64738;SDS011;51175;51.186;0.276;2023-04-05T02:50:41;7.18;;;4.78;;
64738;SDS011;51175;51.186;0.276;2023-04-05T02:51:15;6.50;;;5.03;;
64738;SDS011;51175;51.186;0.276;2023-04-05T02:51:46;7.63;;;4.28;;
64738;SDS011;51175;51.186;0.276;2023-04-05T02:52:16;5.18;;;4.28;;
64738;SDS011;51175;51.186;0.276;2023-04-05T02:52:46;6.80;;;4.82;;
64738;SDS011;51175;51.186;0.276;2023-04-05T02:53:17;6.60;;;4.32;;
64738;SDS011;51175;51.186;0.276;2023-04-05T02:53:47;7.28;;;4.40;;
64738;SDS011;51175;51.186;0.276;2023-04-05T02:54:18;7.35;;;4.90;;
64738;SDS011;51175;51.186;0.276;2023-04-05T02:54:48;6.68;;;4.30;;
64738;SDS011;51175;51.186;0.276;2023-04-05T02:55:19;7.03;;;5.35;;
64738;SDS011;51175;51.186;0.276;2023-04-05T02:55:52;7.88;;;5.57;;
64738;SDS011;51175;51.186;0.276;2023-04-05T02:56:26;11.00;;;5.32;;
64738;SDS011;51175;51.186;0.276;2023-04-05T02:56:56;6.47;;;4.63;;
64738;SDS011;51175;51.186;0.276;2023-04-05T02:57:31;5.57;;;4.10;;
64738;SDS011;51175;51.186;0.276;2023-04-05T02:58:01;6.85;;;4.65;;
64738;SDS011;51175;51.186;0.276;2023-04-05T02:58:32;7.78;;;4.93;;
64738;SDS011;51175;51.186;0.276;2023-04-05T02:59:02;7.45;;;4.60;;
64738;SDS011;51175;51.186;0.276;2023-04-05T02:59:33;7.70;;;5.00;;
64738;SDS011;51175;51.186;0.276;2023-04-05T03:00:03;7.15;;;5.35;;
64738;SDS011;51175;51.186;0.276;2023-04-05T03:00:34;6.03;;;4.30;;
64738;SDS011;51175;51.186;0.276;2023-04-05T03:01:05;7.47;;;4.32;;
64738;SDS011;51175;51.186;0.276;2023-04-05T03:01:36;8.88;;;4.57;;
64738;SDS011;51175;51.186;0.276;2023-04-05T03:02:08;6.32;;;4.80;;
64738;SDS011;51175;51.186;0.276;2023-04-05T03:02:39;6.00;;;4.53;;
64738;SDS011;51175;51.186;0.276;2023-04-05T03:03:09;8.57;;;6.68;;
64738;SDS011;51175;51.186;0.276;2023-04-05T03:03:40;6.50;;;4.45;;
64738;SDS011;51175;51.186;0.276;2023-04-05T03:04:11;6.72;;;4.22;;
64738;SDS011;51175;51.186;0.276;2023-04-05T03:04:41;8.13;;;4.82;;
64738;SDS011;51175;51.186;0.276;2023-04-05T03:05:13;6.40;;;4.70;;
64738;SDS011;51175;51.186;0.276;2023-04-05T03:05:47;8.98;;;4.85;;
64738;SDS011;51175;51.186;0.276;2023-04-05T03:06:25;7.15;;;4.80;;
64738;SDS011;51175;51.186;0.276;2023-04-05T03:06:56;6.85;;;4.55;;
64738;SDS011;51175;51.186;0.276;2023-04-05T03:07:26;7.53;;;5.70;;
64738;SDS011;51175;51.186;0.276;2023-04-05T03:07:57;8.00;;;4.90;;
64738;SDS011;51175;51.186;0.276;2023-04-05T03:08:28;7.88;;;5.45;;
64738;SDS011;51175;51.186;0.276;2023-04-05T03:08:59;6.22;;;4.85;;
64738;SDS011;51175;51.186;0.276;2023-04-05T03:09:31;5.90;;;4.50;;
64738;SDS011;51175;51.186;0.276;2023-04-05T03:10:02;6.07;;;4.70;;
64738;SDS011;51175;51.186;0.276;2023-04-05T03:10:34;8.95;;;4.75;;
64738;SDS011;51175;51.186;0.276;2023-04-05T03:11:05;8.85;;;5.25;;
64738;SDS011;51175;51.186;0.276;2023-04-05T03:11:36;9.88;;;5.65;;
64738;SDS011;51175;51.186;0.276;2023-04-05T03:12:06;7.15;;;4.80;;
64738;SDS011;51175;51.186;0.276;2023-04-05T03:12:36;7.60;;;5.13;;
64738;SDS011;51175;51.186;0.276;2023-04-05T03:13:07;8.25;;;5.43;;
64738;SDS011;51175;51.186;0.276;2023-04-05T03:13:37;5.88;;;4.45;;
64738;SDS011;51175;51.186;0.276;2023-04-05T03:14:08;7.78;;;5.75;;
64738;SDS011;51175;51.186;0.276;2023-04-05T03:14:38;8.70;;;4.88;;
64738;SDS011;51175;51.186;0.276;2023-04-05T03:15:09;6.22;;;4.82;;
64738;SDS011;51175;51.186;0.276;2023-04-05T03:15:40;6.93;;;5.07;;
64738;SDS011;51175;51.186;0.276;2023-04-05T03:16:11;7.78;;;5.00;;
64738;SDS011;51175;51.186;0.276;2023-04-05T03:16:41;6.90;;;5.43;;
64738;SDS011;51175;51.186;0.276;2023-04-05T03:17:12;8.40;;;5.05;;
64738;SDS011;51175;51.186;0.276;2023-04-05T03:17:42;7.10;;;4.60;;
64738;SDS011;51175;51.186;0.276;2023-04-05T03:18:13;7.00;;;5.03;;
64738;SDS011;51175;51.186;0.276;2023-04-05T03:18:45;5.65;;;4.38;;
64738;SDS011;51175;51.186;0.276;2023-04-05T03:19:15;7.57;;;5.03;;
64738;SDS011;51175;51.186;0.276;2023-04-05T03:19:47;6.97;;;4.78;;
64738;SDS011;51175;51.186;0.276;2023-04-05T03:20:18;7.45;;;4.38;;
64738;SDS011;51175;51.186;0.276;2023-04-05T03:20:48;8.25;;;4.78;;
64738;SDS011;51175;51.186;0.276;2023-04-05T03:21:19;6.30;;;4.93;;